createdAt,value
2018-07-15T00:01:55.910Z,70.60
2018-07-15T00:04:25.992Z,70.60
2018-07-15T00:09:25.725Z,70.70
2018-07-15T00:14:25.800Z,70.90
2018-07-15T00:16:55.897Z,71.10
2018-07-15T00:24:25.268Z,71.80
2018-07-15T00:26:55.616Z,72.10
2018-07-15T00:29:25.690Z,72.70
2018-07-15T00:31:55.761Z,72.00
2018-07-15T00:34:25.809Z,71.90
2018-07-15T00:36:55.842Z,72.10
2018-07-15T00:39:25.879Z,72.60
2018-07-15T00:41:55.963Z,72.70
2018-07-15T00:44:26.049Z,73.00
2018-07-15T00:46:56.135Z,73.20
2018-07-15T00:51:55.833Z,74.10
2018-07-15T00:54:25.915Z,74.20
2018-07-15T00:56:56.508Z,74.70
2018-07-15T00:59:26.703Z,74.80
2018-07-15T01:01:56.857Z,75.30
2018-07-15T01:04:26.950Z,74.70
2018-07-15T01:06:57.028Z,74.60
2018-07-15T01:09:27.756Z,75.00
2018-07-15T01:11:57.876Z,75.00
2018-07-15T01:14:27.955Z,75.20
2018-07-15T01:16:58.011Z,75.50
2018-07-15T01:19:28.059Z,75.70
2018-07-15T01:21:58.151Z,75.90
2018-07-15T01:24:28.256Z,76.30
2018-07-15T01:26:58.352Z,76.40
2018-07-15T01:29:29.359Z,76.40
2018-07-15T01:31:59.424Z,76.60
2018-07-15T01:34:29.605Z,76.70
2018-07-15T01:36:59.818Z,76.60
2018-07-15T01:39:29.928Z,77.00
2018-07-15T01:41:59.983Z,76.90
2018-07-15T01:44:30.129Z,76.80
2018-07-15T01:47:00.183Z,76.90
2018-07-15T01:49:30.324Z,77.20
2018-07-15T01:52:00.364Z,77.50
2018-07-15T01:54:30.483Z,77.30
2018-07-15T01:57:00.529Z,77.40
2018-07-15T01:59:30.652Z,77.60
2018-07-15T02:02:00.754Z,77.80
2018-07-15T02:04:30.816Z,77.90
2018-07-15T02:07:00.878Z,78.00
2018-07-15T02:09:30.954Z,78.30
2018-07-15T02:12:01.009Z,78.10
2018-07-15T02:14:31.090Z,78.00
2018-07-15T02:17:01.232Z,78.00
2018-07-15T02:19:31.344Z,77.90
2018-07-15T02:22:01.365Z,78.10
2018-07-15T02:24:31.438Z,78.30
2018-07-15T02:27:01.497Z,78.20
2018-07-15T02:29:31.659Z,78.20
2018-07-15T02:32:01.989Z,78.40
2018-07-15T02:34:32.116Z,78.60
2018-07-15T02:37:02.168Z,78.70
2018-07-15T02:42:01.921Z,79.10
2018-07-15T02:44:32.049Z,79.20
2018-07-15T02:47:02.130Z,79.10
2018-07-15T02:49:32.204Z,79.20
2018-07-15T02:52:02.282Z,79.20
2018-07-15T02:54:32.365Z,79.10
2018-07-15T02:57:02.402Z,79.10
2018-07-15T02:59:32.461Z,79.00
2018-07-15T03:02:02.556Z,79.00
2018-07-15T03:04:32.680Z,79.30
2018-07-15T03:07:02.782Z,79.80
2018-07-15T03:09:32.966Z,79.70
2018-07-15T03:12:03.038Z,79.60
2018-07-15T03:14:33.168Z,79.70
2018-07-15T03:17:03.247Z,79.60
2018-07-15T03:19:33.334Z,79.60
2018-07-15T03:22:03.433Z,79.50
2018-07-15T03:24:33.494Z,80.30
2018-07-15T03:29:33.166Z,79.80
2018-07-15T03:32:03.383Z,79.90
2018-07-15T03:34:33.509Z,80.00
2018-07-15T03:37:03.643Z,79.90
2018-07-15T03:39:33.768Z,79.60
2018-07-15T03:42:04.809Z,79.50
2018-07-15T03:44:34.895Z,79.50
2018-07-15T03:47:04.948Z,79.80
2018-07-15T03:49:35.047Z,79.60
2018-07-15T03:52:05.179Z,79.60
2018-07-15T03:54:35.267Z,79.70
2018-07-15T03:57:05.387Z,79.80
2018-07-15T03:59:35.529Z,79.90
2018-07-15T04:04:35.512Z,80.00
2018-07-15T04:07:05.664Z,80.30
2018-07-15T04:09:35.744Z,80.40
2018-07-15T04:12:05.840Z,80.20
2018-07-15T04:17:06.028Z,80.40
2018-07-15T04:19:36.139Z,81.60
2018-07-15T04:22:06.261Z,81.60
2018-07-15T04:24:36.381Z,81.80
2018-07-15T04:27:06.468Z,82.10
2018-07-15T04:29:36.548Z,82.20
2018-07-15T04:32:06.723Z,82.10
2018-07-15T04:34:36.849Z,82.30
2018-07-15T04:37:07.734Z,82.30
2018-07-15T04:39:37.880Z,82.40
2018-07-15T04:42:08.034Z,82.70
2018-07-15T04:44:38.442Z,82.90
2018-07-15T04:47:08.588Z,82.50
2018-07-15T04:49:38.671Z,82.40
2018-07-15T04:52:08.761Z,83.10
2018-07-15T04:54:39.049Z,83.00
2018-07-15T04:59:38.751Z,81.80
2018-07-15T05:02:08.882Z,82.10
2018-07-15T05:04:38.946Z,81.80
2018-07-15T05:07:09.031Z,81.20
2018-07-15T05:09:39.069Z,81.10
2018-07-15T05:12:09.170Z,80.80
2018-07-15T05:14:39.239Z,81.30
2018-07-15T05:17:09.340Z,80.10
2018-07-15T05:19:39.369Z,79.20
2018-07-15T05:22:09.573Z,79.00
2018-07-15T05:24:39.639Z,78.40
2018-07-15T05:27:09.967Z,78.10
2018-07-15T05:29:40.231Z,77.50
2018-07-15T05:32:10.401Z,77.30
2018-07-15T05:34:40.463Z,77.40
2018-07-15T05:37:10.673Z,77.40
2018-07-15T05:39:40.788Z,74.70
2018-07-15T05:42:10.940Z,74.10
2018-07-15T05:44:41.032Z,73.60
2018-07-15T05:47:11.093Z,73.20
2018-07-15T05:49:41.161Z,73.20
2018-07-15T05:52:11.306Z,73.10
2018-07-15T05:54:41.420Z,75.80
2018-07-15T05:57:11.577Z,71.20
2018-07-15T05:59:41.582Z,71.20
2018-07-15T06:02:11.637Z,72.30
2018-07-15T06:04:41.669Z,73.50
2018-07-15T06:09:41.410Z,73.40
2018-07-15T06:12:11.496Z,71.70
2018-07-15T06:14:41.539Z,68.30
2018-07-15T06:17:11.748Z,67.70
2018-07-15T06:19:41.691Z,73.50
2018-07-15T06:22:11.823Z,73.20
2018-07-15T06:24:41.931Z,72.50
2018-07-15T06:27:12.006Z,72.80
2018-07-15T06:29:42.097Z,71.80
2018-07-15T06:32:12.358Z,71.70
2018-07-15T06:34:42.427Z,72.20
2018-07-15T06:37:12.537Z,71.20
2018-07-15T06:39:42.803Z,73.50
2018-07-15T06:42:12.930Z,71.40
2018-07-15T06:44:42.972Z,72.20
2018-07-15T06:47:13.040Z,71.90
2018-07-15T06:49:43.134Z,73.10
2018-07-15T06:52:13.358Z,72.00
2018-07-15T06:54:43.448Z,71.20
2018-07-15T06:57:13.644Z,70.70
2018-07-15T06:59:43.745Z,70.40
2018-07-15T07:02:13.819Z,70.10
2018-07-15T07:04:43.896Z,70.40
2018-07-15T07:07:14.070Z,69.60
2018-07-15T07:09:44.181Z,69.70
2018-07-15T07:12:14.296Z,69.20
2018-07-15T07:14:44.539Z,69.60
2018-07-15T07:17:15.011Z,73.10
2018-07-15T07:19:45.816Z,67.20
2018-07-15T07:22:16.062Z,68.40
2018-07-15T07:24:46.139Z,68.10
2018-07-15T07:27:16.299Z,70.00
2018-07-15T07:29:46.445Z,68.10
2018-07-15T07:32:16.550Z,64.10
2018-07-15T07:34:46.951Z,69.50
2018-07-15T07:37:17.075Z,65.80
2018-07-15T07:39:47.155Z,64.20
2018-07-15T07:42:17.324Z,64.30
2018-07-15T07:44:47.381Z,65.40
2018-07-15T07:47:17.807Z,65.50
2018-07-15T07:49:47.893Z,64.30
2018-07-15T07:52:18.088Z,65.20
2018-07-15T07:54:48.185Z,64.80
2018-07-15T07:57:18.321Z,65.90
2018-07-15T07:59:48.763Z,67.10
2018-07-15T08:02:18.922Z,64.40
2018-07-15T08:04:49.041Z,66.80
2018-07-15T08:09:48.819Z,66.30
2018-07-15T08:12:19.034Z,65.30
2018-07-15T08:14:49.226Z,65.10
2018-07-15T08:17:19.342Z,65.40
2018-07-15T08:19:49.705Z,64.10
2018-07-15T08:22:19.775Z,62.60
2018-07-15T08:24:49.871Z,63.30
2018-07-15T08:27:20.025Z,63.20
2018-07-15T08:30:06.617Z,64.80
2018-07-15T08:32:36.731Z,64.50
2018-07-15T08:35:06.897Z,65.60
2018-07-15T08:37:37.785Z,65.20
2018-07-15T08:40:07.980Z,63.90
2018-07-15T08:42:38.081Z,65.20
2018-07-15T08:45:08.172Z,65.50
2018-07-15T08:47:38.220Z,66.20
2018-07-15T08:50:08.337Z,63.20
2018-07-15T08:52:38.504Z,63.60
2018-07-15T08:55:08.606Z,64.30
2018-07-15T08:57:38.681Z,63.60
2018-07-15T09:00:08.931Z,63.20
2018-07-15T09:02:39.075Z,64.20
2018-07-15T09:05:09.333Z,65.30
2018-07-15T09:07:39.448Z,62.20
2018-07-15T09:10:09.656Z,62.10
2018-07-15T09:12:39.742Z,64.50
2018-07-15T09:15:09.915Z,62.50
2018-07-15T09:17:39.972Z,64.40
2018-07-15T09:20:10.133Z,61.50
2018-07-15T09:22:40.220Z,60.90
2018-07-15T09:25:10.368Z,61.10
2018-07-15T09:27:40.523Z,59.90
2018-07-15T09:30:10.709Z,62.00
2018-07-15T09:35:10.579Z,58.80
2018-07-15T09:37:40.665Z,59.80
2018-07-15T09:42:40.492Z,61.70
2018-07-15T09:45:10.692Z,62.90
2018-07-15T09:47:40.801Z,58.20
2018-07-15T09:50:11.078Z,60.10
2018-07-15T09:52:41.183Z,61.90
2018-07-15T09:55:11.343Z,62.60
2018-07-15T10:00:15.052Z,58.20
2018-07-15T10:02:45.097Z,56.60
2018-07-15T10:05:15.306Z,57.90
2018-07-15T10:07:45.497Z,56.60
2018-07-15T10:10:15.658Z,57.20
2018-07-15T10:15:15.415Z,57.00
2018-07-15T10:17:45.532Z,56.10
2018-07-15T10:20:15.654Z,56.90
2018-07-15T10:22:46.236Z,58.60
2018-07-15T10:25:16.446Z,59.60
2018-07-15T10:27:46.584Z,58.20
2018-07-15T10:30:16.739Z,58.50
2018-07-15T10:32:47.005Z,59.80
2018-07-15T10:35:17.277Z,59.30
2018-07-15T10:37:47.457Z,58.40
2018-07-15T10:40:17.576Z,57.40
2018-07-15T10:42:47.618Z,58.50
2018-07-15T10:45:17.751Z,58.80
2018-07-15T10:47:48.439Z,59.20
2018-07-15T10:50:18.597Z,58.40
2018-07-15T10:52:48.789Z,59.80
2018-07-15T10:55:19.002Z,59.10
2018-07-15T11:02:48.353Z,60.60
2018-07-15T11:05:19.191Z,59.20
2018-07-15T11:07:49.381Z,59.60
2018-07-15T11:10:19.492Z,60.60
2018-07-15T11:12:49.644Z,59.00
2018-07-15T11:15:19.836Z,59.50
2018-07-15T11:17:49.904Z,61.80
2018-07-15T11:22:50.286Z,62.40
2018-07-15T11:25:20.530Z,62.60
2018-07-15T11:27:50.596Z,63.00
2018-07-15T11:30:20.675Z,64.10
2018-07-15T11:32:50.732Z,63.70
2018-07-15T11:37:50.734Z,67.20
2018-07-15T11:40:21.056Z,66.40
2018-07-15T11:42:51.300Z,67.80
2018-07-15T11:45:21.372Z,68.40
2018-07-15T11:47:51.588Z,69.20
2018-07-15T11:50:21.924Z,70.50
2018-07-15T11:52:51.968Z,72.90
2018-07-15T11:55:22.265Z,74.20
2018-07-15T11:57:52.348Z,75.40
2018-07-15T12:00:22.492Z,74.50
2018-07-15T12:02:52.561Z,75.70
2018-07-15T12:05:22.595Z,75.20
2018-07-15T12:07:52.849Z,75.90
2018-07-15T12:10:22.926Z,75.40
2018-07-15T12:12:53.669Z,74.70
2018-07-15T12:15:23.719Z,76.30
2018-07-15T12:17:53.863Z,75.30
2018-07-15T12:20:23.958Z,74.10
2018-07-15T12:22:54.172Z,73.30
2018-07-15T12:25:24.271Z,73.70
2018-07-15T12:27:54.353Z,73.10
2018-07-15T12:30:24.379Z,74.50
2018-07-15T12:32:54.503Z,73.50
2018-07-15T12:35:24.797Z,71.50
2018-07-15T12:37:54.895Z,68.50
2018-07-15T12:40:24.978Z,67.70
2018-07-15T12:42:55.109Z,63.50
2018-07-15T12:45:25.148Z,63.20
2018-07-15T12:47:55.209Z,63.70
2018-07-15T12:50:25.226Z,63.30
2018-07-15T12:52:55.434Z,68.00
2018-07-15T12:55:25.693Z,62.60
2018-07-15T12:57:55.847Z,67.10
2018-07-15T13:02:56.283Z,67.50
2018-07-15T13:05:26.376Z,59.80
2018-07-15T13:07:56.755Z,61.20
2018-07-15T13:10:26.803Z,60.60
2018-07-15T13:12:56.995Z,62.10
2018-07-15T13:15:27.036Z,61.50
2018-07-15T13:17:57.196Z,57.30
2018-07-15T13:20:27.290Z,58.20
2018-07-15T13:22:57.429Z,59.50
2018-07-15T13:25:27.505Z,56.50
2018-07-15T13:27:57.924Z,56.20
2018-07-15T13:32:58.192Z,53.80
2018-07-15T13:35:28.962Z,54.50
2018-07-15T13:37:59.476Z,55.00
2018-07-15T13:40:29.648Z,54.80
2018-07-15T13:42:59.788Z,48.70
2018-07-15T13:45:29.954Z,51.80
2018-07-15T13:48:00.068Z,51.80
2018-07-15T13:52:59.972Z,52.00
2018-07-15T13:55:30.098Z,52.00
2018-07-15T13:58:02.635Z,50.60
2018-07-15T14:00:32.915Z,47.80
2018-07-15T14:03:03.069Z,48.50
2018-07-15T14:05:33.429Z,50.60
2018-07-15T14:08:03.737Z,52.70
2018-07-15T14:10:34.016Z,52.70
2018-07-15T14:15:33.856Z,56.10
2018-07-15T14:18:04.071Z,56.30
2018-07-15T14:20:34.421Z,58.60
2018-07-15T14:23:04.572Z,57.80
2018-07-15T14:25:34.773Z,59.60
2018-07-15T14:28:05.062Z,58.80
2018-07-15T14:30:35.281Z,56.20
2018-07-15T14:33:05.407Z,58.10
2018-07-15T14:35:35.563Z,60.20
2018-07-15T14:43:05.841Z,62.60
2018-07-15T14:45:45.230Z,62.20
2018-07-15T14:48:17.412Z,62.60
2018-07-15T14:50:49.108Z,63.00
2018-07-15T14:53:19.718Z,63.30
2018-07-15T14:55:49.906Z,61.90
2018-07-15T14:58:20.165Z,59.60
2018-07-15T15:00:50.231Z,60.60
2018-07-15T15:03:20.538Z,58.50
2018-07-15T15:05:50.607Z,57.90
2018-07-15T15:08:20.764Z,56.50
2018-07-15T15:10:50.839Z,57.80
2018-07-15T15:13:20.999Z,60.10
2018-07-15T15:15:51.075Z,60.80
2018-07-15T15:18:21.269Z,58.40
2018-07-15T15:20:51.357Z,56.40
2018-07-15T15:23:21.486Z,58.10
2018-07-15T15:25:51.579Z,56.40
2018-07-15T15:28:21.743Z,57.30
2018-07-15T15:30:51.854Z,56.40
2018-07-15T15:33:22.003Z,55.70
2018-07-15T15:35:52.098Z,52.90
2018-07-15T15:38:22.284Z,53.90
2018-07-15T15:40:52.372Z,54.10
2018-07-15T15:43:22.446Z,53.70
2018-07-15T15:45:53.494Z,54.20
2018-07-15T15:48:23.623Z,51.90
2018-07-15T15:50:54.202Z,49.60
2018-07-15T15:53:24.351Z,50.20
2018-07-15T15:55:54.609Z,50.70
2018-07-15T15:58:24.716Z,52.50
2018-07-15T16:00:55.134Z,53.60
2018-07-15T16:03:25.305Z,54.00
2018-07-15T16:05:55.411Z,54.10
2018-07-15T16:08:25.542Z,54.60
2018-07-15T16:10:55.706Z,54.70
2018-07-15T16:13:25.894Z,54.40
2018-07-15T16:15:56.061Z,54.80
2018-07-15T16:18:26.131Z,56.20
2018-07-15T16:20:56.371Z,57.20
2018-07-15T16:23:26.605Z,58.30
2018-07-15T16:25:56.723Z,58.50
2018-07-15T16:28:27.366Z,58.90
2018-07-15T16:30:57.551Z,58.60
2018-07-15T16:33:29.242Z,58.50
2018-07-15T16:35:59.479Z,59.10
2018-07-15T16:38:29.572Z,60.30
2018-07-15T16:40:59.695Z,60.40
2018-07-15T16:43:29.781Z,60.30
2018-07-15T16:45:59.952Z,61.30
2018-07-15T16:48:30.083Z,61.80
2018-07-15T16:51:00.202Z,62.00
2018-07-15T16:53:30.290Z,62.30
2018-07-15T16:56:00.348Z,63.20
2018-07-15T16:58:30.373Z,63.60
2018-07-15T17:01:00.487Z,65.30
2018-07-15T17:03:30.573Z,65.40
2018-07-15T17:11:21.676Z,65.30
2018-07-15T17:13:52.562Z,65.70
2018-07-15T17:16:22.665Z,66.00
2018-07-15T17:18:52.708Z,66.30
2018-07-15T17:21:22.862Z,67.50
2018-07-15T17:23:53.193Z,65.80
2018-07-15T17:26:23.291Z,65.60
2018-07-15T17:28:53.362Z,65.20
2018-07-15T17:33:53.146Z,62.40
2018-07-15T17:36:23.336Z,62.50
2018-07-15T17:38:53.514Z,61.70
2018-07-15T17:41:23.650Z,61.50
2018-07-15T17:43:53.753Z,61.70
2018-07-15T17:46:23.857Z,62.00
2018-07-15T17:48:53.924Z,61.50
2018-07-15T17:51:24.062Z,61.80
2018-07-15T17:53:54.102Z,60.70
2018-07-15T17:56:24.210Z,62.00
2018-07-15T17:58:54.392Z,60.80
2018-07-15T18:01:24.436Z,60.00
2018-07-15T18:03:54.534Z,59.90
2018-07-15T18:06:24.611Z,59.60
2018-07-15T18:08:54.663Z,58.50
2018-07-15T18:11:24.763Z,59.80
2018-07-15T18:13:54.891Z,59.20
2018-07-15T18:16:25.016Z,59.70
2018-07-15T18:18:55.112Z,59.40
2018-07-15T18:23:54.853Z,60.50
2018-07-15T18:28:54.912Z,59.70
2018-07-15T18:31:25.069Z,59.70
2018-07-15T18:33:55.135Z,61.20
2018-07-15T18:38:55.076Z,60.70
2018-07-15T18:41:25.200Z,64.30
2018-07-15T18:43:55.684Z,69.00
2018-07-15T18:46:25.787Z,63.40
2018-07-15T18:48:56.251Z,64.70
2018-07-15T18:51:26.461Z,65.90
2018-07-15T18:53:56.696Z,66.70
2018-07-15T18:56:26.808Z,67.70
2018-07-15T18:58:57.209Z,68.20
2018-07-15T19:01:27.325Z,68.60
2018-07-15T19:03:57.359Z,69.60
2018-07-15T19:06:27.478Z,68.90
2018-07-15T19:08:57.565Z,69.90
2018-07-15T19:13:57.352Z,71.30
2018-07-15T19:16:27.444Z,71.20
2018-07-15T19:18:57.540Z,71.10
2018-07-15T19:21:27.669Z,70.80
2018-07-15T19:23:58.300Z,70.90
2018-07-15T19:26:28.390Z,71.00
2018-07-15T19:28:58.487Z,71.30
2018-07-15T19:31:28.586Z,71.50
2018-07-15T19:36:28.354Z,72.00
2018-07-15T19:38:58.444Z,72.10
2018-07-15T19:41:28.618Z,72.00
2018-07-15T19:43:58.734Z,71.80
2018-07-15T19:46:28.861Z,71.50
2018-07-15T19:48:58.874Z,71.70
2018-07-15T19:51:28.975Z,71.60
2018-07-15T19:53:59.012Z,71.80
2018-07-15T19:56:29.092Z,71.80
2018-07-15T19:58:59.151Z,72.20
2018-07-15T20:01:29.282Z,72.10
2018-07-15T20:03:59.323Z,71.90
2018-07-15T20:06:29.510Z,71.80
2018-07-15T20:08:59.648Z,71.50
2018-07-15T20:11:29.775Z,71.10
2018-07-15T20:13:59.920Z,71.40
2018-07-15T20:16:30.035Z,71.70
2018-07-15T20:19:00.152Z,71.80
2018-07-15T20:21:30.424Z,71.80
2018-07-15T20:24:00.999Z,71.50
2018-07-15T20:26:31.172Z,71.80
2018-07-15T20:29:01.303Z,72.00
2018-07-15T20:31:31.536Z,72.60
2018-07-15T20:34:01.771Z,73.00
2018-07-15T20:36:31.865Z,72.90
2018-07-15T20:39:01.964Z,73.00
2018-07-15T20:41:32.019Z,73.60
2018-07-15T20:44:02.107Z,73.20
2018-07-15T20:46:32.318Z,73.20
2018-07-15T20:49:02.394Z,73.80
2018-07-15T20:51:32.525Z,73.70
2018-07-15T20:56:32.245Z,73.00
2018-07-15T20:59:02.343Z,71.90
2018-07-15T21:01:32.379Z,71.80
2018-07-15T21:04:04.371Z,70.90
2018-07-15T21:06:35.922Z,70.70
2018-07-15T21:11:36.756Z,70.00
2018-07-15T21:14:06.919Z,70.00
2018-07-15T21:16:37.052Z,69.70
2018-07-15T21:19:07.340Z,69.80
2018-07-15T21:21:37.443Z,70.10
2018-07-15T21:24:08.534Z,70.40
2018-07-15T21:26:38.567Z,70.40
2018-07-15T21:29:08.784Z,70.70
2018-07-15T21:34:08.620Z,70.50
2018-07-15T21:36:38.711Z,69.30
2018-07-15T21:39:10.040Z,67.90
2018-07-15T21:41:40.137Z,66.80
2018-07-15T21:44:10.200Z,66.00
2018-07-15T21:46:40.271Z,66.20
2018-07-15T21:49:10.323Z,66.50
2018-07-15T21:51:40.420Z,66.50
2018-07-15T21:54:10.698Z,66.60
2018-07-15T21:56:40.757Z,66.20
2018-07-15T21:59:10.858Z,65.20
2018-07-15T22:04:13.179Z,64.30
2018-07-15T22:06:59.812Z,64.20
2018-07-15T22:10:10.320Z,63.70
2018-07-15T22:12:40.392Z,63.60
2018-07-15T22:15:10.483Z,63.50
2018-07-15T22:17:40.597Z,63.20
2018-07-15T22:20:11.579Z,63.10
2018-07-15T22:22:41.640Z,63.10
2018-07-15T22:25:11.752Z,63.50
2018-07-15T22:30:11.455Z,64.40
2018-07-15T22:32:41.505Z,64.90
2018-07-15T22:35:11.612Z,65.00
2018-07-15T22:37:41.673Z,65.60
2018-07-15T22:40:11.744Z,67.00
2018-07-15T22:42:41.820Z,69.90
2018-07-15T22:45:11.979Z,70.40
2018-07-15T22:47:42.007Z,71.10
2018-07-15T22:50:12.124Z,71.70
2018-07-15T22:52:42.251Z,71.90
2018-07-15T22:55:12.332Z,71.80
2018-07-15T22:57:42.481Z,71.50
2018-07-15T23:00:12.801Z,72.00
2018-07-15T23:02:42.857Z,72.10
2018-07-15T23:05:57.853Z,71.90
2018-07-15T23:08:29.140Z,72.00
2018-07-15T23:10:59.240Z,71.90
2018-07-15T23:13:29.342Z,71.40
2018-07-15T23:15:59.481Z,70.90
2018-07-15T23:18:29.539Z,70.60
2018-07-15T23:20:59.752Z,70.40
2018-07-15T23:23:29.811Z,70.40
2018-07-15T23:25:59.915Z,71.20
2018-07-15T23:28:30.009Z,71.30
2018-07-15T23:31:00.145Z,71.60
2018-07-15T23:33:30.163Z,72.10
2018-07-15T23:36:00.313Z,72.00
2018-07-15T23:38:30.353Z,71.60
2018-07-15T23:41:00.515Z,71.50
2018-07-15T23:43:30.598Z,72.00
2018-07-15T23:48:30.352Z,73.90
2018-07-15T23:51:00.399Z,74.50
2018-07-15T23:53:30.530Z,74.50
2018-07-15T23:56:00.615Z,76.80
2018-07-15T23:58:30.680Z,77.40
